Шаршки

Карта отелей и гостиниц, располагающихся рядом с аэропортом Шаршки :

Шаршки
Усмань
Липецкая область 52° 1' 40.4904" N, 39° 40' 10.8084" E
Код аэродрома ИКАО
XUOU
Код аэродрома RU
ЬУОУ
Координаты
N52.02791° E039.66967°
Превышение над уровнем моря
162
Основная полоса
09/27
Курс магнитный
092,6/272,6
Длина основной ВПП
1358
Ширина основной ВПП
35
Покрытие основной ВПП
Нетвёрдое (грунт)
Освещение ВПП
Нет
Тип: 
Аэродром
Класс аэродрома: 
Принадлежность: 
ДОСААФ
Статус: 
Действующий
Сайт: 
http://atsk-sapsan.ru/
E-mail аэродрома: 
kliuev@mail.ru
Страна: 
Россия
Регион: 
Липецкая область
Город: 
Усмань
Дополнительная информация: 
Оператор: АТСК "Сапсан" ДОСААФ России. Сезонно (с апреля по октябрь) работает Верхнехавская планерная школа. АНП ПП зарегистрирован в МТУ ВТ ЦР ФАВТ 16 апр 2015 №ЦП3-402. Взлет/посадка с инф. обслуживанием-500 р.

Найти трансфер

С помощью этой формы Вы можете найти трансфер из аэропорта Шаршки в город, аэропорт или вокзал:

Карта места

Javascript is required to view this map.

Погода в аэропортах:

Авиационная погода в Якутске

Регион: 
Погода METAR: 
UEEE 171530Z 29002MPS 9999 -SHRA BKN020CB 07/06 Q0998 R23L/290155 NOSIG RMK QFE740
Время наблюдения
2021-09-17T15:30:00Z
Температура C
7.0
Точка росы
6.0
Направление ветра
290
Скорость ветра (узлы)
4
Метео видимость
6.21
Явления погоды
-SHRA
Условия полета
MVFR
Аэропорт подробнее: 

Авиационная погода в Толмачево

Регион: 
Погода METAR: 
UNNT 171530Z 28004MPS 9999 -SHRA BKN060CB 17/09 Q0997 R25/290160 R34/////// NOSIG RMK QFE738/0984
Время наблюдения
2021-09-17T15:30:00Z
Температура C
17.0
Точка росы
9.0
Направление ветра
280
Скорость ветра (узлы)
8
Метео видимость
6.21
Явления погоды
-SHRA
Условия полета
VFR
Аэропорт подробнее: 

Авиационная погода в Могилёве

Регион: 
Погода METAR: 
UMOO 171230Z 07005MPS 4800 -RA BR OVC005 08/07 Q1014 R13/290068 NOSIG RMK QBB160
Время наблюдения
2021-09-17T12:30:00Z
Температура C
8.0
Точка росы
7.0
Направление ветра
70
Скорость ветра (узлы)
10
Метео видимость
2.98
Явления погоды
-RA BR
Условия полета
IFR
Аэропорт подробнее: 

Авиационная погода в Тбилиси

Регион: 
Погода METAR: 
UGTB 171530Z 33017KT 9999 -SHRA SCT055CB 18/15 Q1015 R31L/19//60 NOSIG
Время наблюдения
2021-09-17T15:30:00Z
Температура C
18.0
Точка росы
15.0
Направление ветра
330
Скорость ветра (узлы)
17
Метео видимость
6.21
Явления погоды
-SHRA
Условия полета
VFR